Time;durP1;ratioP1;P1;durP2;ratioP2;P2;SDS_P1;SDS_P2;PMS_P1;PMS_P2;Temp;Humidity;BMP_temperature;BMP_pressure;BME280_temperature;BME280_humidity;BME280_pressure;Samples;Min_cycle;Max_cycle;Signal;HPM_P1;HPM_P2
2023/04/17 00:00:09;;;;;;;56.70;32.78;;;7.80;99.90;;;;;;5096109;28;20039;-90
2023/04/17 00:02:38;;;;;;;67.07;34.72;;;7.80;99.90;;;;;;5113756;27;20061;-90
2023/04/17 00:05:07;;;;;;;63.78;33.47;;;7.70;99.90;;;;;;5115962;27;20050;-90
2023/04/17 00:07:34;;;;;;;59.17;33.72;;;7.80;99.90;;;;;;5107813;28;20146;-90
2023/04/17 00:09:59;;;;;;;65.03;35.05;;;7.80;99.90;;;;;;5103569;28;20139;-90
2023/04/17 00:12:25;;;;;;;62.33;34.20;;;7.70;99.90;;;;;;5101444;27;20080;-91
2023/04/17 00:14:51;;;;;;;64.22;32.60;;;7.70;99.90;;;;;;5116201;27;20098;-90
2023/04/17 00:17:17;;;;;;;64.35;34.47;;;7.70;99.90;;;;;;5101332;27;20046;-89
2023/04/17 00:19:42;;;;;;;58.85;31.55;;;8.10;99.90;;;;;;5115946;27;20050;-90
2023/04/17 00:22:08;;;;;;;56.15;32.75;;;7.70;99.90;;;;;;5094839;28;20051;-91
2023/04/17 00:24:34;;;;;;;65.20;34.20;;;7.70;99.90;;;;;;5094483;28;20035;-90
2023/04/17 00:27:00;;;;;;;62.58;33.47;;;7.70;99.90;;;;;;5108051;28;20539;-90
2023/04/17 00:29:26;;;;;;;62.45;33.60;;;7.70;99.90;;;;;;5077171;28;20048;-91
2023/04/17 00:31:51;;;;;;;68.72;34.35;;;7.60;99.90;;;;;;5096343;27;20168;-92
2023/04/17 00:34:17;;;;;;;71.03;35.33;;;7.60;99.90;;;;;;5098776;27;20410;-91
2023/04/17 00:36:43;;;;;;;66.78;34.47;;;7.60;99.90;;;;;;5084077;27;20116;-91
2023/04/17 00:39:08;;;;;;;68.15;36.30;;;7.60;99.90;;;;;;5097733;27;20050;-90
2023/04/17 00:41:34;;;;;;;70.70;34.83;;;7.60;99.90;;;;;;5079202;28;20100;-90
2023/04/17 00:44:00;;;;;;;68.75;35.85;;;7.60;99.90;;;;;;5090460;27;20066;-90
2023/04/17 00:46:25;;;;;;;68.38;34.88;;;7.60;99.90;;;;;;5084073;27;20115;-90
2023/04/17 00:48:51;;;;;;;76.28;35.85;;;7.60;99.90;;;;;;5098620;27;20043;-90
2023/04/17 00:51:17;;;;;;;65.85;34.35;;;7.60;99.90;;;;;;5084099;27;20497;-90
2023/04/17 00:53:44;;;;;;;77.78;35.65;;;7.60;99.90;;;;;;5085997;28;20043;-90
2023/04/17 00:56:10;;;;;;;90.57;39.30;;;7.60;99.90;;;;;;5090187;28;20032;-90
2023/04/17 00:58:36;;;;;;;75.63;37.50;;;7.60;99.90;;;;;;5090232;27;20047;-90
2023/04/17 01:01:04;;;;;;;88.10;39.97;;;7.60;99.90;;;;;;5097385;27;20043;-91
2023/04/17 01:03:31;;;;;;;99.50;40.83;;;7.60;99.90;;;;;;5097937;27;20497;-91
2023/04/17 01:05:57;;;;;;;88.18;38.92;;;7.60;99.90;;;;;;5100753;27;20050;-91
2023/04/17 01:08:23;;;;;;;84.85;38.78;;;7.60;99.90;;;;;;5097332;27;20043;-90
2023/04/17 01:10:49;;;;;;;88.43;38.72;;;7.60;99.90;;;;;;5089457;27;20468;-91
2023/04/17 01:13:14;;;;;;;105.03;39.83;;;7.60;99.90;;;;;;5083719;28;20082;-90
2023/04/17 01:15:41;;;;;;;84.43;37.75;;;7.80;99.90;;;;;;5104307;27;20123;-90
2023/04/17 01:18:07;;;;;;;108.63;41.10;;;7.50;99.90;;;;;;5104600;27;20118;-91
2023/04/17 01:20:33;;;;;;;96.78;39.95;;;7.50;99.90;;;;;;5075968;28;20115;-90
2023/04/17 01:23:00;;;;;;;84.63;36.33;;;7.60;99.90;;;;;;5091720;27;20039;-90
2023/04/17 01:25:27;;;;;;;85.95;38.90;;;7.50;99.90;;;;;;5096159;27;20039;-91
2023/04/17 01:27:53;;;;;;;80.05;38.50;;;7.60;99.90;;;;;;5085529;28;20095;-91
2023/04/17 01:30:19;;;;;;;93.32;39.65;;;7.60;99.90;;;;;;5097263;27;20136;-91
2023/04/17 01:32:45;;;;;;;85.78;38.28;;;7.50;99.90;;;;;;5107112;27;20096;-90
2023/04/17 01:35:11;;;;;;;99.32;39.85;;;7.50;99.90;;;;;;5087229;27;20167;-91
2023/04/17 01:37:37;;;;;;;117.43;41.10;;;7.50;99.90;;;;;;5113530;27;20050;-90
2023/04/17 01:40:05;;;;;;;84.43;38.33;;;7.50;99.90;;;;;;5107852;28;20046;-90
2023/04/17 01:42:32;;;;;;;117.93;41.80;;;7.50;99.90;;;;;;5098984;27;20046;-90
2023/04/17 01:44:58;;;;;;;109.30;41.22;;;7.50;99.90;;;;;;5094822;28;20111;-90
2023/04/17 01:47:24;;;;;;;137.65;40.40;;;7.50;99.90;;;;;;5097887;27;20050;-91
2023/04/17 01:49:49;;;;;;;123.18;38.10;;;7.50;99.90;;;;;;5110156;28;20098;-90
2023/04/17 01:52:15;;;;;;;90.70;35.17;;;7.50;99.90;;;;;;5101778;27;20112;-90
2023/04/17 01:54:41;;;;;;;115.30;37.28;;;7.60;99.90;;;;;;5113339;27;20081;-90
2023/04/17 01:57:06;;;;;;;98.47;36.95;;;7.40;99.90;;;;;;5099352;27;20046;-90
2023/04/17 01:59:32;;;;;;;102.45;35.58;;;7.40;99.90;;;;;;5096630;27;20046;-90
2023/04/17 02:01:58;;;;;;;131.38;41.25;;;7.40;99.90;;;;;;5096228;27;20494;-90
2023/04/17 02:04:23;;;;;;;201.85;41.13;;;7.40;99.90;;;;;;5096243;27;20130;-90
2023/04/17 02:06:49;;;;;;;143.35;37.90;;;7.40;99.90;;;;;;5095823;27;20047;-90
2023/04/17 02:09:15;;;;;;;132.02;40.75;;;7.40;99.90;;;;;;5096231;27;20053;-91
2023/04/17 02:11:41;;;;;;;215.55;36.42;;;7.30;99.90;;;;;;5100573;27;20047;-90
2023/04/17 02:14:07;;;;;;;110.43;36.10;;;7.40;99.90;;;;;;5104731;27;20450;-89
2023/04/17 02:16:32;;;;;;;256.17;45.17;;;7.30;99.90;;;;;;5101471;27;20043;-90
2023/04/17 02:18:58;;;;;;;155.68;37.85;;;7.30;99.90;;;;;;5096270;27;20050;-90
2023/04/17 02:21:25;;;;;;;230.35;41.38;;;7.30;99.90;;;;;;5095864;27;20055;-90
2023/04/17 02:23:52;;;;;;;102.53;34.92;;;7.30;99.90;;;;;;5103535;27;20119;-90
2023/04/17 02:26:18;;;;;;;152.63;36.72;;;7.30;99.90;;;;;;5101636;27;20039;-89
2023/04/17 02:28:44;;;;;;;86.85;33.45;;;7.30;99.90;;;;;;5104353;27;20145;-90
2023/04/17 02:31:11;;;;;;;134.70;36.47;;;7.30;99.90;;;;;;5100681;27;20082;-90
2023/04/17 02:33:37;;;;;;;118.13;35.50;;;7.30;99.90;;;;;;5096399;27;20155;-90
2023/04/17 02:36:05;;;;;;;72.18;32.67;;;7.20;99.90;;;;;;5109712;27;20080;-90
2023/04/17 02:38:31;;;;;;;129.20;36.85;;;7.30;99.90;;;;;;5095407;27;20058;-90
2023/04/17 02:40:57;;;;;;;78.82;34.22;;;7.20;99.90;;;;;;5109176;27;20481;-91
2023/04/17 02:43:23;;;;;;;75.70;33.83;;;7.60;99.90;;;;;;5104507;27;20156;-90
2023/04/17 02:45:50;;;;;;;141.68;37.85;;;7.30;99.90;;;;;;5114225;27;20098;-90
2023/04/17 02:48:16;;;;;;;80.25;34.08;;;7.30;99.90;;;;;;5095700;27;20031;-89
2023/04/17 02:50:42;;;;;;;129.80;37.85;;;7.30;99.90;;;;;;5095578;27;20856;-89
2023/04/17 02:53:08;;;;;;;83.45;35.25;;;7.30;99.90;;;;;;5094420;27;20074;-89
2023/04/17 02:55:34;;;;;;;94.45;34.15;;;7.30;99.90;;;;;;5095002;27;20122;-89
2023/04/17 02:58:00;;;;;;;75.65;33.58;;;7.30;99.90;;;;;;5104406;27;20206;-89
2023/04/17 03:00:26;;;;;;;142.77;36.85;;;7.30;99.90;;;;;;5100781;27;20043;-89
2023/04/17 03:02:52;;;;;;;72.30;33.05;;;7.20;99.90;;;;;;5116272;27;20050;-89
2023/04/17 03:05:22;;;;;;;150.43;36.45;;;7.30;99.90;;;;;;5100942;27;20418;-89
2023/04/17 03:07:48;;;;;;;95.93;35.35;;;7.20;99.90;;;;;;5095324;27;20046;-90
2023/04/17 03:10:14;;;;;;;125.15;34.75;;;7.30;99.90;;;;;;5110865;27;20031;-90
2023/04/17 03:12:40;;;;;;;221.02;44.75;;;7.30;99.90;;;;;;5106042;27;20050;-88
2023/04/17 03:15:07;;;;;;;160.40;38.58;;;7.30;99.90;;;;;;5098004;27;20066;-90
2023/04/17 03:17:32;;;;;;;207.07;43.72;;;7.20;99.90;;;;;;5106259;28;20166;-90
2023/04/17 03:19:58;;;;;;;121.13;39.40;;;7.20;99.90;;;;;;5109498;27;20205;-90
2023/04/17 03:22:24;;;;;;;131.75;38.15;;;7.20;99.90;;;;;;5103880;27;20506;-90
2023/04/17 03:24:49;;;;;;;142.45;38.25;;;7.30;99.90;;;;;;5112770;27;20035;-90
2023/04/17 03:27:15;;;;;;;89.47;33.42;;;7.20;99.90;;;;;;5103993;27;20069;-89
2023/04/17 03:29:41;;;;;;;226.45;38.80;;;7.20;99.90;;;;;;5109796;28;20120;-90
2023/04/17 03:32:06;;;;;;;149.82;36.28;;;7.30;99.90;;;;;;5106025;28;20573;-89
2023/04/17 03:34:32;;;;;;;149.50;36.25;;;7.20;99.90;;;;;;5110550;28;20050;-90
2023/04/17 03:36:58;;;;;;;274.40;34.30;;;7.20;99.90;;;;;;5111566;28;20085;-89
2023/04/17 03:39:23;;;;;;;157.52;34.58;;;7.20;99.90;;;;;;5097849;28;20046;-90
2023/04/17 03:41:49;;;;;;;302.30;39.25;;;7.20;99.90;;;;;;5094616;28;20100;-90
2023/04/17 03:44:16;;;;;;;558.70;50.60;;;7.10;99.90;;;;;;5078946;28;20387;-90
2023/04/17 03:46:42;;;;;;;224.40;34.83;;;7.10;99.90;;;;;;5083310;28;20046;-89
2023/04/17 03:49:07;;;;;;;377.10;42.63;;;7.10;99.90;;;;;;5094643;28;20042;-88
2023/04/17 03:51:33;;;;;;;497.08;45.58;;;7.00;99.90;;;;;;5099633;28;20063;-89
2023/04/17 03:53:59;;;;;;;296.10;38.50;;;7.00;99.90;;;;;;5109059;28;20457;-89
2023/04/17 03:56:24;;;;;;;310.02;34.53;;;7.00;99.90;;;;;;5088800;28;20051;-89
2023/04/17 03:58:50;;;;;;;333.88;36.45;;;7.00;99.90;;;;;;5111766;28;20039;-90
2023/04/17 04:01:16;;;;;;;134.10;30.02;;;7.20;99.90;;;;;;5092089;28;20035;-90
2023/04/17 04:03:42;;;;;;;212.70;33.13;;;7.00;99.90;;;;;;5096170;28;20051;-88
2023/04/17 04:06:07;;;;;;;349.17;38.47;;;7.00;99.90;;;;;;5102670;27;20096;-90
2023/04/17 04:08:33;;;;;;;259.05;36.38;;;7.10;99.90;;;;;;5102014;27;20047;-89
2023/04/17 04:11:00;;;;;;;321.45;38.78;;;7.30;99.90;;;;;;5108303;27;20039;-90
2023/04/17 04:13:26;;;;;;;532.97;53.47;;;7.60;99.90;;;;;;5115903;27;20124;-90
2023/04/17 04:15:51;;;;;;;462.25;44.03;;;7.10;99.90;;;;;;5106971;28;20122;-90
2023/04/17 04:18:17;;;;;;;312.67;40.38;;;7.10;99.90;;;;;;5093165;27;20046;-90
2023/04/17 04:20:43;;;;;;;195.57;39.35;;;7.10;99.90;;;;;;5102802;27;20112;-89
2023/04/17 04:23:09;;;;;;;344.30;50.42;;;7.10;99.90;;;;;;5113180;27;20039;-90
2023/04/17 04:25:35;;;;;;;194.18;41.38;;;7.10;99.90;;;;;;5107331;28;20050;-89
2023/04/17 04:28:01;;;;;;;121.95;40.05;;;7.20;99.90;;;;;;5101136;27;20047;-90
2023/04/17 04:30:29;;;;;;;219.25;37.92;;;7.20;99.90;;;;;;5086001;27;20463;-90
2023/04/17 04:32:55;;;;;;;95.40;34.65;;;7.20;99.90;;;;;;5098411;27;20155;-88
2023/04/17 04:35:24;;;;;;;144.10;34.10;;;7.20;99.90;;;;;;5095066;28;20056;-89
2023/04/17 04:37:53;;;;;;;121.75;34.00;;;7.20;99.90;;;;;;5093604;28;20057;-89
2023/04/17 04:40:20;;;;;;;235.45;37.75;;;7.10;99.90;;;;;;5086390;27;20032;-89
2023/04/17 04:42:48;;;;;;;151.15;38.90;;;7.20;99.90;;;;;;5098582;27;20039;-90
2023/04/17 04:45:14;;;;;;;110.65;33.25;;;7.40;99.90;;;;;;5103502;27;20182;-91
2023/04/17 04:47:40;;;;;;;103.82;33.08;;;7.20;99.90;;;;;;5101163;27;20125;-89
2023/04/17 04:50:07;;;;;;;78.55;31.70;;;7.20;99.90;;;;;;5104694;27;20053;-90
2023/04/17 04:52:32;;;;;;;122.93;36.55;;;7.20;99.90;;;;;;5112774;27;20137;-90
2023/04/17 04:54:58;;;;;;;84.35;32.88;;;7.20;99.90;;;;;;5105510;28;20074;-89
2023/04/17 04:57:24;;;;;;;104.32;32.95;;;7.20;99.90;;;;;;5102845;27;20573;-90
2023/04/17 04:59:49;;;;;;;76.32;31.33;;;7.20;99.90;;;;;;5093005;27;20049;-90
2023/04/17 05:02:15;;;;;;;88.78;34.00;;;7.20;99.90;;;;;;5112041;28;20047;-90
2023/04/17 05:04:41;;;;;;;96.88;34.20;;;7.20;99.90;;;;;;5087126;27;20089;-90
2023/04/17 05:07:06;;;;;;;97.07;35.63;;;7.20;99.90;;;;;;5110331;27;20106;-90
2023/04/17 05:09:32;;;;;;;68.55;33.08;;;7.60;99.90;;;;;;5113276;27;20059;-90
2023/04/17 05:11:58;;;;;;;89.35;35.55;;;7.20;99.90;;;;;;5110344;27;20577;-90
2023/04/17 05:14:24;;;;;;;87.13;35.03;;;7.30;99.90;;;;;;5105150;28;20122;-90
2023/04/17 05:16:50;;;;;;;135.15;39.33;;;7.30;99.90;;;;;;5103752;27;20035;-89
2023/04/17 05:19:16;;;;;;;87.03;36.50;;;7.40;99.90;;;;;;5099564;28;20059;-90
2023/04/17 05:21:41;;;;;;;104.35;38.03;;;7.30;99.90;;;;;;5108707;27;20054;-91
2023/04/17 05:24:07;;;;;;;166.07;44.97;;;7.30;99.90;;;;;;5110013;28;20092;-89
2023/04/17 05:26:33;;;;;;;119.38;40.05;;;7.30;99.90;;;;;;5107138;27;20490;-89
2023/04/17 05:28:59;;;;;;;102.75;39.50;;;7.30;99.90;;;;;;5092360;27;20483;-89
2023/04/17 05:31:25;;;;;;;80.50;37.38;;;7.40;99.90;;;;;;5097828;28;20078;-89
2023/04/17 05:33:51;;;;;;;91.97;38.10;;;7.40;99.90;;;;;;5102480;27;20031;-89
2023/04/17 05:36:17;;;;;;;90.55;39.63;;;7.50;99.90;;;;;;5125586;27;20065;-90
2023/04/17 05:38:43;;;;;;;89.18;37.78;;;7.50;99.90;;;;;;5122950;27;20038;-89
2023/04/17 05:41:09;;;;;;;89.85;38.38;;;7.50;99.90;;;;;;5116127;27;20399;-90
2023/04/17 05:43:35;;;;;;;79.97;36.15;;;7.60;99.90;;;;;;5091800;27;20422;-90
2023/04/17 05:46:01;;;;;;;90.03;37.80;;;7.70;99.90;;;;;;5111457;27;20555;-90
2023/04/17 05:48:27;;;;;;;87.82;37.35;;;7.70;99.90;;;;;;5085545;27;20035;-90
2023/04/17 05:50:53;;;;;;;66.60;33.40;;;7.70;99.90;;;;;;5092829;28;20414;-90
2023/04/17 05:53:18;;;;;;;65.00;32.55;;;7.80;99.90;;;;;;5083642;28;20046;-90
2023/04/17 05:55:44;;;;;;;61.30;33.03;;;7.80;99.90;;;;;;5094627;27;20047;-89
2023/04/17 05:58:10;;;;;;;68.72;32.40;;;7.90;99.90;;;;;;5121984;27;20530;-90
2023/04/17 06:00:36;;;;;;;64.97;34.05;;;7.90;99.90;;;;;;5117333;27;20031;-90
2023/04/17 06:03:01;;;;;;;59.80;32.83;;;7.90;99.90;;;;;;5113487;27;20042;-90
2023/04/17 06:05:27;;;;;;;53.58;31.60;;;8.00;99.90;;;;;;5101112;27;20042;-90
2023/04/17 06:07:53;;;;;;;55.40;32.17;;;8.00;99.90;;;;;;5114039;27;20086;-90
2023/04/17 06:10:19;;;;;;;54.88;29.67;;;8.00;99.90;;;;;;5118746;27;20423;-91
2023/04/17 06:12:45;;;;;;;54.28;29.92;;;8.10;99.90;;;;;;5087025;28;20134;-90
2023/04/17 06:15:11;;;;;;;51.22;29.67;;;8.10;99.90;;;;;;5091965;28;20032;-91
2023/04/17 06:17:38;;;;;;;59.47;29.90;;;8.10;99.90;;;;;;5093157;27;20043;-89
2023/04/17 06:20:08;;;;;;;58.80;28.40;;;8.20;99.90;;;;;;5110275;27;20039;-90
2023/04/17 06:22:38;;;;;;;48.50;29.00;;;8.30;99.90;;;;;;5110952;27;20133;-90
2023/04/17 06:25:04;;;;;;;49.67;28.35;;;8.30;99.90;;;;;;5105764;28;20075;-90
2023/04/17 06:27:30;;;;;;;47.28;27.55;;;8.40;99.90;;;;;;5086978;28;20299;-90
2023/04/17 06:29:56;;;;;;;48.17;27.17;;;8.40;99.90;;;;;;5100203;27;20395;-90
2023/04/17 06:32:22;;;;;;;42.90;27.58;;;8.50;99.90;;;;;;5111631;27;20290;-90
2023/04/17 06:34:47;;;;;;;45.78;26.67;;;8.50;99.90;;;;;;5102129;27;20130;-90
2023/04/17 06:37:13;;;;;;;37.65;25.42;;;8.70;99.90;;;;;;5111458;27;20076;-91
2023/04/17 06:39:39;;;;;;;41.88;26.52;;;8.80;99.90;;;;;;5112168;27;20111;-90
2023/04/17 06:42:05;;;;;;;38.35;24.27;;;8.80;99.90;;;;;;5116115;27;20043;-89
2023/04/17 06:44:31;;;;;;;36.35;24.63;;;8.80;99.90;;;;;;5097401;28;20043;-90
2023/04/17 06:46:57;;;;;;;34.08;23.85;;;8.80;99.90;;;;;;5098931;27;20034;-91
2023/04/17 06:49:23;;;;;;;35.60;23.75;;;8.90;99.90;;;;;;5107969;27;20039;-92
2023/04/17 06:51:50;;;;;;;35.25;24.42;;;9.00;99.90;;;;;;5098028;28;20044;-90
2023/04/17 06:54:16;;;;;;;32.47;24.02;;;9.00;99.90;;;;;;5104263;28;20043;-90
2023/04/17 06:56:42;;;;;;;32.60;22.95;;;9.00;99.90;;;;;;5100052;27;20402;-91
2023/04/17 06:59:08;;;;;;;34.25;24.40;;;9.10;99.90;;;;;;5111428;27;20043;-91
2023/04/17 07:01:34;;;;;;;34.55;24.27;;;9.10;99.90;;;;;;5103276;27;20430;-91
2023/04/17 07:04:00;;;;;;;33.55;24.17;;;9.10;99.90;;;;;;5122298;27;20050;-91
2023/04/17 07:06:27;;;;;;;30.98;23.35;;;9.20;99.90;;;;;;5113456;27;20127;-91
2023/04/17 07:08:53;;;;;;;30.17;22.50;;;9.20;99.90;;;;;;5120554;27;20055;-91
2023/04/17 07:11:19;;;;;;;32.63;23.15;;;9.30;99.90;;;;;;5111510;28;20543;-89
2023/04/17 07:13:45;;;;;;;29.98;22.75;;;9.40;99.90;;;;;;5116578;27;20035;-91
2023/04/17 07:16:10;;;;;;;33.33;22.98;;;9.40;99.90;;;;;;5117371;27;20054;-92
2023/04/17 07:18:36;;;;;;;29.13;22.55;;;9.50;99.90;;;;;;5114051;27;20089;-91
2023/04/17 07:21:03;;;;;;;35.53;21.48;;;9.50;99.90;;;;;;5110486;28;20109;-90
2023/04/17 07:23:29;;;;;;;35.92;22.02;;;9.50;99.90;;;;;;5108938;28;20668;-91
2023/04/17 07:25:57;;;;;;;28.60;21.88;;;9.60;99.90;;;;;;5107679;28;20142;-92
2023/04/17 07:28:23;;;;;;;29.38;22.05;;;9.70;99.90;;;;;;5097834;28;20056;-91
2023/04/17 07:30:50;;;;;;;30.02;22.23;;;9.70;99.90;;;;;;5118243;27;20046;-90
2023/04/17 07:33:15;;;;;;;25.88;19.85;;;9.80;99.90;;;;;;5110632;28;20122;-91
2023/04/17 07:35:42;;;;;;;24.65;19.85;;;9.80;99.90;;;;;;5110554;28;20118;-92
2023/04/17 07:38:08;;;;;;;31.42;21.30;;;9.80;99.90;;;;;;5126607;27;20043;-92
2023/04/17 07:40:35;;;;;;;27.48;19.25;;;10.10;99.90;;;;;;5132431;27;20035;-91
2023/04/17 07:43:01;;;;;;;24.02;17.70;;;9.90;99.90;;;;;;5127725;27;20089;-91
2023/04/17 07:45:27;;;;;;;27.50;18.63;;;10.10;99.90;;;;;;5117547;27;20043;-91
2023/04/17 07:47:53;;;;;;;27.40;18.42;;;10.20;99.90;;;;;;5113860;28;20055;-91
2023/04/17 07:50:19;;;;;;;25.35;19.23;;;10.30;99.90;;;;;;5097914;27;20035;-92
2023/04/17 07:52:45;;;;;;;24.88;19.17;;;10.40;99.90;;;;;;5116929;27;20035;-92
2023/04/17 07:55:11;;;;;;;28.77;20.20;;;10.30;99.90;;;;;;5117697;27;20039;-91
2023/04/17 07:57:41;;;;;;;24.35;19.98;;;10.40;99.90;;;;;;5117615;27;20039;-91
2023/04/17 08:00:10;;;;;;;25.10;19.83;;;10.40;99.90;;;;;;5100435;27;20047;-91
2023/04/17 08:02:35;;;;;;;25.40;19.95;;;10.50;99.90;;;;;;5117428;27;20167;-91
2023/04/17 08:05:02;;;;;;;24.35;20.35;;;10.60;99.90;;;;;;5105314;27;20130;-90
2023/04/17 08:07:27;;;;;;;26.23;19.83;;;10.80;99.90;;;;;;5109606;28;20048;-91
2023/04/17 08:09:53;;;;;;;26.40;19.90;;;10.80;99.90;;;;;;5109111;27;20042;-91
2023/04/17 08:12:19;;;;;;;22.45;17.95;;;10.90;99.90;;;;;;5106256;27;20075;-92
2023/04/17 08:14:45;;;;;;;23.77;17.60;;;11.00;99.90;;;;;;5120245;27;20047;-91
2023/04/17 08:17:11;;;;;;;22.17;16.90;;;11.10;99.90;;;;;;5116340;27;20027;-91
2023/04/17 08:19:36;;;;;;;21.23;17.42;;;11.10;99.90;;;;;;5123151;27;20054;-90
2023/04/17 08:22:03;;;;;;;24.33;18.10;;;11.10;99.90;;;;;;5117660;27;20075;-90
2023/04/17 08:24:30;;;;;;;22.95;17.15;;;11.10;99.90;;;;;;5108109;27;20410;-91
2023/04/17 08:26:56;;;;;;;23.75;18.10;;;11.10;99.90;;;;;;5109247;28;20043;-90
2023/04/17 08:29:22;;;;;;;20.70;16.73;;;11.10;99.90;;;;;;5099817;27;20075;-89
2023/04/17 08:31:48;;;;;;;22.33;18.48;;;11.10;99.90;;;;;;5114531;27;20041;-91
2023/04/17 08:34:14;;;;;;;30.00;18.63;;;11.30;99.90;;;;;;5103429;28;20130;-92
2023/04/17 08:36:40;;;;;;;22.98;17.95;;;11.40;99.90;;;;;;5114848;27;20043;-92
2023/04/17 08:39:06;;;;;;;23.70;18.15;;;11.40;99.90;;;;;;5115623;27;20047;-92
2023/04/17 08:41:41;;;;;;;27.27;18.67;;;11.50;99.90;;;;;;5115516;27;20035;-91
2023/04/17 08:44:07;;;;;;;33.15;16.33;;;11.50;99.90;;;;;;5101536;27;20047;-90
2023/04/17 08:46:35;;;;;;;18.58;14.82;;;11.60;99.90;;;;;;5115311;27;20089;-91
2023/04/17 08:49:02;;;;;;;24.80;14.98;;;11.70;99.90;;;;;;5101510;28;20077;-90
2023/04/17 08:51:28;;;;;;;25.13;14.30;;;11.70;99.90;;;;;;5083855;27;20051;-92
2023/04/17 08:53:54;;;;;;;18.27;14.95;;;11.80;99.90;;;;;;5097636;27;20104;-91
2023/04/17 08:56:21;;;;;;;21.77;15.18;;;11.90;99.90;;;;;;5102647;27;20039;-92
2023/04/17 08:59:06;;;;;;;20.95;15.90;;;12.00;99.90;;;;;;5115322;27;20589;-93
2023/04/17 09:01:33;;;;;;;19.60;15.20;;;12.00;99.90;;;;;;5104482;28;20055;-90
2023/04/17 09:03:59;;;;;;;21.30;16.05;;;12.10;99.90;;;;;;5109944;28;20387;-92
2023/04/17 09:06:26;;;;;;;19.80;15.23;;;12.20;99.90;;;;;;5093546;28;20044;-92
2023/04/17 09:08:56;;;;;;;17.88;14.82;;;12.20;99.90;;;;;;5112510;27;20039;-92
2023/04/17 09:11:21;;;;;;;19.20;14.77;;;12.30;99.90;;;;;;5111982;27;20047;-91
2023/04/17 09:13:47;;;;;;;20.63;14.02;;;12.20;99.90;;;;;;5116234;27;20047;-91
2023/04/17 09:16:14;;;;;;;18.08;13.40;;;12.20;99.90;;;;;;5111470;28;20063;-91
2023/04/17 09:18:42;;;;;;;17.77;13.32;;;12.30;99.90;;;;;;5109386;28;20039;-91
2023/04/17 09:21:08;;;;;;;20.35;13.40;;;12.30;99.90;;;;;;5097909;27;20493;-90
2023/04/17 09:23:53;;;;;;;20.02;13.02;;;12.50;99.90;;;;;;5114878;27;20043;-92
2023/04/17 09:26:25;;;;;;;15.32;11.82;;;12.50;99.90;;;;;;5109944;27;20044;-91
2023/04/17 09:29:02;;;;;;;17.23;12.40;;;12.60;99.90;;;;;;5104151;28;20079;-91
2023/04/17 09:31:29;;;;;;;17.75;13.48;;;12.60;99.90;;;;;;5116560;27;20066;-91
2023/04/17 09:33:59;;;;;;;20.00;12.98;;;12.70;99.90;;;;;;5113888;27;20192;-89
2023/04/17 09:36:26;;;;;;;20.55;13.07;;;12.90;99.90;;;;;;5116864;27;20071;-91
2023/04/17 09:38:52;;;;;;;21.33;13.15;;;12.90;99.90;;;;;;5114752;27;20074;-91
2023/04/17 09:41:24;;;;;;;20.30;13.95;;;12.90;99.90;;;;;;5112519;27;20043;-90
2023/04/17 09:43:52;;;;;;;18.13;13.82;;;13.00;99.90;;;;;;5092075;27;20046;-90
2023/04/17 09:46:44;;;;;;;17.98;14.77;;;13.00;99.90;;;;;;5099126;27;20566;-90
2023/04/17 09:49:33;;;;;;;21.55;15.30;;;13.10;99.90;;;;;;5093015;28;20040;-91
2023/04/17 09:51:59;;;;;;;21.40;15.07;;;13.10;99.90;;;;;;5076784;28;20043;-91
2023/04/17 09:54:30;;;;;;;20.08;15.00;;;13.10;99.90;;;;;;5089068;28;20054;-91
2023/04/17 09:56:56;;;;;;;31.63;15.35;;;13.10;99.90;;;;;;5087406;27;20043;-92
2023/04/17 09:59:23;;;;;;;22.80;15.18;;;13.20;99.90;;;;;;5111124;27;20497;-91
2023/04/17 10:01:50;;;;;;;19.23;15.70;;;13.20;99.90;;;;;;5101858;28;20101;-92
2023/04/17 10:04:18;;;;;;;19.67;15.27;;;13.20;99.90;;;;;;5096254;27;20407;-92
2023/04/17 10:06:44;;;;;;;20.77;15.55;;;13.20;99.90;;;;;;5105690;27;20502;-92
2023/04/17 10:09:10;;;;;;;19.70;15.38;;;13.20;99.90;;;;;;5100328;27;20474;-91
2023/04/17 10:11:39;;;;;;;20.15;14.57;;;13.20;99.90;;;;;;5095183;28;20043;-92
2023/04/17 10:14:23;;;;;;;19.65;15.20;;;13.20;99.90;;;;;;5114269;27;20487;-91
2023/04/17 10:16:49;;;;;;;17.45;13.25;;;13.20;99.90;;;;;;5096774;27;20126;-91
2023/04/17 10:19:24;;;;;;;21.60;14.18;;;13.30;99.90;;;;;;5102715;27;20035;-91
2023/04/17 10:22:18;;;;;;;20.92;13.25;;;13.40;99.90;;;;;;5108175;28;20093;-90
2023/04/17 10:24:47;;;;;;;19.60;14.32;;;13.60;99.90;;;;;;5090814;27;20493;-90
2023/04/17 10:27:25;;;;;;;21.05;14.73;;;13.70;99.90;;;;;;5096510;27;20039;-90
2023/04/17 10:29:58;;;;;;;19.58;14.35;;;13.80;99.90;;;;;;5109534;27;20043;-91
2023/04/17 10:32:27;;;;;;;21.90;14.90;;;13.90;99.90;;;;;;5111252;28;20072;-91
2023/04/17 10:34:56;;;;;;;21.30;14.90;;;14.00;99.90;;;;;;5098851;27;20508;-91
2023/04/17 10:37:50;;;;;;;29.83;14.05;;;14.10;99.90;;;;;;5111270;27;20039;-90
2023/04/17 10:40:24;;;;;;;20.23;14.38;;;14.20;99.90;;;;;;5113259;27;20047;-91
2023/04/17 10:43:11;;;;;;;23.90;14.15;;;14.30;99.90;;;;;;5098895;27;20510;-91
2023/04/17 10:45:59;;;;;;;21.42;15.82;;;14.40;99.90;;;;;;5099238;27;20048;-91
2023/04/17 10:48:27;;;;;;;21.85;15.70;;;14.50;99.90;;;;;;5102699;27;20089;-91
2023/04/17 10:50:54;;;;;;;20.30;14.68;;;14.60;99.90;;;;;;5093352;28;20035;-90
2023/04/17 10:53:41;;;;;;;22.10;16.02;;;14.60;99.90;;;;;;5092891;27;20043;-91
2023/04/17 10:56:09;;;;;;;22.60;15.57;;;14.50;99.90;;;;;;5095593;27;20097;-90
2023/04/17 10:58:55;;;;;;;21.00;14.95;;;14.50;99.90;;;;;;5089411;27;20046;-90
2023/04/17 11:01:25;;;;;;;21.33;15.13;;;14.50;99.90;;;;;;5111975;27;20027;-90
2023/04/17 11:03:51;;;;;;;22.15;14.77;;;14.50;99.90;;;;;;5098187;27;20479;-90
2023/04/17 11:06:18;;;;;;;23.30;14.88;;;14.40;99.90;;;;;;5101165;27;20551;-90
2023/04/17 11:08:44;;;;;;;24.77;14.77;;;14.50;99.90;;;;;;5109828;27;20039;-90
2023/04/17 11:11:11;;;;;;;19.63;15.10;;;14.70;99.90;;;;;;5090799;28;20047;-89
2023/04/17 11:13:37;;;;;;;21.58;14.90;;;14.70;99.90;;;;;;5095062;28;20047;-90
2023/04/17 11:16:03;;;;;;;22.13;15.70;;;14.70;99.90;;;;;;5102919;28;20051;-90
2023/04/17 11:18:30;;;;;;;19.40;14.82;;;14.70;99.90;;;;;;5091143;28;20108;-90
2023/04/17 11:20:57;;;;;;;22.13;14.90;;;14.70;99.90;;;;;;5102109;28;20039;-89
2023/04/17 11:23:22;;;;;;;24.90;15.38;;;14.90;99.90;;;;;;5091675;28;20046;-90
2023/04/17 11:25:48;;;;;;;20.45;14.75;;;15.00;99.90;;;;;;5091265;28;20101;-89
2023/04/17 11:28:14;;;;;;;21.25;15.68;;;15.00;99.90;;;;;;5091945;28;20054;-90
2023/04/17 11:30:43;;;;;;;18.15;13.23;;;15.10;99.90;;;;;;5074957;28;20055;-90
2023/04/17 11:33:10;;;;;;;21.58;14.07;;;15.10;99.90;;;;;;5073890;28;20043;-90
2023/04/17 11:35:38;;;;;;;22.00;14.15;;;15.20;99.90;;;;;;5075142;28;20039;-91
2023/04/17 11:38:11;;;;;;;20.42;14.32;;;15.30;99.90;;;;;;5076544;28;20035;-92
2023/04/17 11:40:43;;;;;;;;;;;15.40;99.90;;;;;;5075034;28;20047;-91
2023/04/17 11:43:11;;;;;;;26.42;14.23;;;15.40;99.90;;;;;;5069580;28;19970;-91
2023/04/17 11:45:39;;;;;;;20.27;14.02;;;15.30;99.90;;;;;;5068697;28;20039;-91
2023/04/17 11:48:10;;;;;;;20.50;14.20;;;15.20;99.90;;;;;;5067368;28;20040;-91
2023/04/17 11:50:36;;;;;;;20.80;14.73;;;15.10;99.90;;;;;;5054962;28;20044;-91
2023/04/17 11:53:03;;;;;;;21.85;15.48;;;15.00;99.90;;;;;;5074203;28;20078;-91
2023/04/17 11:55:30;;;;;;;20.05;14.57;;;15.00;99.90;;;;;;5074639;28;20071;-91
2023/04/17 11:57:57;;;;;;;20.23;13.35;;;15.00;99.90;;;;;;5075149;28;20040;-91
2023/04/17 12:00:28;;;;;;;24.63;15.15;;;15.00;99.90;;;;;;5073731;28;20126;-91
2023/04/17 12:02:55;;;;;;;18.10;14.65;;;15.00;99.90;;;;;;5075591;28;20111;-91
2023/04/17 12:05:21;;;;;;;17.50;13.70;;;15.10;99.90;;;;;;5074814;28;20118;-91
2023/04/17 12:07:57;;;;;;;25.30;14.68;;;15.10;99.90;;;;;;5073755;28;20112;-92
2023/04/17 12:10:22;;;;;;;25.52;15.40;;;15.20;99.90;;;;;;5073611;28;20050;-91
2023/04/17 12:12:48;;;;;;;23.05;14.20;;;15.30;99.90;;;;;;5074419;28;20043;-92
2023/04/17 12:15:14;;;;;;;20.63;14.55;;;15.30;99.90;;;;;;5073862;28;20063;-91
2023/04/17 12:17:40;;;;;;;24.73;14.63;;;15.40;99.90;;;;;;5074439;28;20470;-91
2023/04/17 12:20:06;;;;;;;20.13;13.95;;;15.40;99.90;;;;;;5075263;28;20039;-91
2023/04/17 12:22:32;;;;;;;22.17;14.20;;;15.30;99.90;;;;;;5073656;28;20127;-92
2023/04/17 12:24:58;;;;;;;21.60;14.32;;;15.50;99.90;;;;;;5074501;28;20154;-92
2023/04/17 12:27:24;;;;;;;21.27;14.07;;;15.50;99.90;;;;;;5079520;27;20043;-91
2023/04/17 12:29:50;;;;;;;20.73;14.25;;;15.50;99.90;;;;;;5081024;28;20047;-93